METAR Data
IDs: Format: Raw Decoded Include TAF

Data at: 0316 UTC 18 Jun 2019

PAGK 180253Z AUTO 15013G23KT 10SM CLR 16/07 A2967 RMK AO2 PK WND 16026/0243 SLP051 60000 T01610067 53008 TSNO $
PAGK 180153Z AUTO 14018G23KT 10SM OVC090 17/07 A2966 RMK AO2 RAE03B36E48 SLP049 P0000 T01720072 TSNO $
PAGK 180053Z AUTO 15008KT 10SM -RA SCT032 SCT075 BKN095 17/08 A2965 RMK AO2 RAB49 SLP046 P0000 T01720078 TSNO $
PAGK 172353Z AUTO 18007KT 150V210 10SM FEW060 BKN075 18/05 A2965 RMK AO2 SLP044 60000 T01780050 10194 20139 55001 TSNO $
PAGK 172253Z AUTO 11011KT 10SM FEW060 OVC100 18/05 A2964 RMK AO2 SLP041 T01830050 TSNO $
PAGK 172153Z AUTO 18009KT 10SM OVC090 17/05 A2965 RMK AO2 SLP044 T01720050 TSNO $
PAGK 172053Z AUTO 13007KT 110V180 10SM BKN090 BKN110 18/06 A2965 RMK AO2 RAB07E18 SLP042 P0000 60000 T01780056 TSNO $
PAGK 171953Z AUTO 13007KT 10SM SCT060 OVC090 16/06 A2966 RMK AO2 SLP046 T01560061 TSNO $
PAGK 171853Z AUTO 13004KT 10SM 15/07 A2966 RMK AO2 SLP044 T01500067 TSNO $
PAGK 171753Z AUTO 00000KT 10SM CLR 14/07 A2966 RMK AO2 SLP045 T01390072 10150 20033 56006 TSNO
PAGK 171653Z AUTO 00000KT 10SM CLR 13/08 A2967 RMK AO2 SLP046 T01280078 TSNO
PAGK 171553Z AUTO 00000KT 10SM CLR 10/07 A2967 RMK AO2 SLP050 T01000072 TSNO
PAGK 171453Z AUTO 00000KT 10SM CLR 07/07 A2968 RMK AO2 SLP056 T00720067 56008 TSNO
PAGK 171353Z AUTO 00000KT 10SM CLR 04/04 A2968 RMK AO2 SLP060 T00440039 TSNO
PAGK 171253Z AUTO 00000KT 10SM CLR 04/03 A2969 RMK AO2 SLP065 T00390033 TSNO
PAGK 171153Z AUTO 00000KT 10SM CLR 03/03 A2970 RMK AO2 SLP071 70017 T00280028 10128 20028 58011 TSNO
PAGK 171053Z AUTO 00000KT 10SM CLR 04/04 A2972 RMK AO2 SLP074 T00440039 TSNO
PAGK 170953Z AUTO 00000KT 10SM CLR 05/05 A2973 RMK AO2 SLP076 T00500050 TSNO
PAGK 170853Z AUTO 00000KT 10SM CLR 07/06 A2974 RMK SLP079 T00720061 401440072 56004 TSNO VIA AUTODIAL
PAGK 170753Z AUTO 14004KT 10SM CLR 09/07 A2974 RMK AO2 SLP077 T00940067 TSNO
PAGK 170653Z AUTO 17006KT 10SM CLR 11/07 A2975 RMK AO2 SLP080 T01060072 TSNO
PAGK 170553Z AUTO 17006KT 10SM BKN120 13/07 A2975 RMK AO2 SLP079 60000 T01280072 10144 20117 56010 TSNO
PAGK 170453Z AUTO 16007KT 10SM CLR 14/07 A2975 RMK AO2 SLP080 T01390072 TSNO
PAGK 170353Z AUTO 15005KT 10SM SCT060 BKN085 14/08 A2977 RMK AO2 SLP083 T01390083 TSNO
PAGK 170253Z AUTO 16006KT 10SM BKN070 BKN080 14/08 A2978 RMK AO2 SLP088 60000 T01390083 56016 TSNO
PAGK 170153Z AUTO 15007KT 10SM OVC080 13/09 A2980 RMK AO2 SLP094 T01330094 TSNO
PAGK 170053Z AUTO 19006KT 10SM BKN075 BKN095 12/10 A2981 RMK AO2 RAE12 SLP101 P0000 T01220100 TSNO
PAGK 162353Z AUTO 16006KT 10SM -RA OVC065 12/10 A2983 RMK AO2 SLP107 P0001 60010 T01170100 10117 20094 58006 TSNO
PAGK 162253Z AUTO 18008KT 10SM -RA FEW045 OVC060 11/10 A2984 RMK AO2 SLP110 P0001 T01110100 TSNO
PAGK 162153Z AUTO 16011KT 9SM -RA OVC060 11/09 A2985 RMK AO2 SLP112 P0002 T01110094 TSNO
PAGK 162053Z AUTO 15011KT 9SM -RA FEW015 OVC055 11/09 A2985 RMK AO2 SLP113 P0003 60006 T01060089 53004 TSNO
PAGK 161953Z AUTO 15011KT 10SM -RA FEW007 SCT011 OVC045 10/09 A2984 RMK AO2 SLP110 P0002 T01000089 TSNO
PAGK 161949Z AUTO 15010KT 10SM -RA FEW007 SCT011 OVC045 10/09 A2984 RMK AO2 P0002 TSNO
PAGK 161853Z AUTO 16007KT 10SM -RA SCT007 BKN014 OVC032 09/09 A2984 RMK AO2 SLP109 P0001 T00940094 TSNO
PAGK 161834Z AUTO 17007KT 10SM -RA SCT005 BKN014 OVC032 09/09 A2983 RMK AO2 P0001 T00940089 TSNO
PAGK 161753Z AUTO 17009KT 10SM -RA BKN006 OVC048 09/09 A2983 RMK SLP106 P0003 60007 T00940089 10100 20089 53006 TSNO VIA AUTODIAL
PAGK 161725Z AUTO 17009KT 6SM -RA BR BKN007 OVC055 09/09 A2983 RMK AO2 P0003 T00940089 TSNO
PAGK 161708Z AUTO 16007KT 8SM -RA SCT006 SCT047 OVC060 09/09 A2982 RMK AO2 P0001 T00940089 TSNO
PAGK 161653Z AUTO 17007KT 5SM -RA BR SCT047 OVC060 09/08 A2982 RMK AO2 SLP101 P0003 T00940083 TSNO
PAGK 161553Z AUTO 18004KT 10SM -RA FEW041 OVC055 10/08 A2982 RMK AO2 SLP100 P0001 T01000083 TSNO